Time;durP1;ratioP1;P1;durP2;ratioP2;P2;SDS_P1;SDS_P2;PMS_P1;PMS_P2;Temp;Humidity;BMP_temperature;BMP_pressure;BME280_temperature;BME280_humidity;BME280_pressure;Samples;Min_cycle;Max_cycle;Signal;HPM_P1;HPM_P2
2022/09/15 00:01:01;;;;;;;;;;;;;;;;;;6263644;22;19938;-90
2022/09/15 00:03:27;;;;;;;;;;;;;;;;;;6261881;22;19923;-90
2022/09/15 00:05:53;;;;;;;;;;;;;;;;;;6260618;22;19926;-90
2022/09/15 00:08:19;;;;;;;;;;;;;;;;;;6289173;22;19941;-90
2022/09/15 00:10:47;;;;;;;;;;;;;;;;;;6262898;22;19919;-90
2022/09/15 00:13:12;;;;;;;;;;;;;;;;;;6290667;22;19915;-89
2022/09/15 00:15:38;;;;;;;;;;;;;;;;;;6260388;22;20328;-88
2022/09/15 00:18:06;;;;;;;;;;;;;;;;;;6263655;22;20224;-90
2022/09/15 00:20:34;;;;;;;;;;;;;;;;;;6292050;22;20326;-90
2022/09/15 00:23:00;;;;;;;;;;;;;;;;;;6262241;22;19950;-90
2022/09/15 00:25:26;;;;;;;;;;;;;;;;;;6288731;22;19960;-89
2022/09/15 00:27:53;;;;;;;;;;;;;;;;;;6260953;22;19919;-90
2022/09/15 00:30:19;;;;;;;;;;;;;;;;;;6264471;22;19926;-90
2022/09/15 00:32:45;;;;;;;;;;;;;;;;;;6262834;22;20021;-89
2022/09/15 00:35:11;;;;;;;;;;;;;;;;;;6288791;22;20346;-90
2022/09/15 00:37:37;;;;;;;;;;;;;;;;;;6260008;22;19923;-90
2022/09/15 00:40:03;;;;;;;;;;;;;;;;;;6289493;22;20092;-90
2022/09/15 00:42:29;;;;;;;;;;;;;;;;;;6289081;22;20141;-90
2022/09/15 00:44:55;;;;;;;;;;;;;;;;;;6283804;22;19957;-90
2022/09/15 00:47:21;;;;;;;;;;;;;;;;;;6290466;22;19914;-90
2022/09/15 00:49:47;;;;;;;;;;;;;;;;;;6289597;22;20340;-90
2022/09/15 00:52:13;;;;;;;;;;;;;;;;;;6293643;22;19914;-90
2022/09/15 00:54:39;;;;;;;;;;;;;;;;;;6265348;22;20234;-89
2022/09/15 00:57:04;;;;;;;;;;;;;;;;;;6290762;22;19925;-90
2022/09/15 00:59:30;;;;;;;;;;;;;;;;;;6289374;22;19918;-90
2022/09/15 01:01:56;;;;;;;;;;;;;;;;;;6288565;22;19972;-90
2022/09/15 01:04:22;;;;;;;;;;;;;;;;;;6291251;22;19914;-90
2022/09/15 01:06:48;;;;;;;;;;;;;;;;;;6317911;22;20184;-90
2022/09/15 01:09:14;;;;;;;;;;;;;;;;;;6292112;22;19961;-91
2022/09/15 01:11:40;;;;;;;;;;;;;;;;;;6291698;22;19918;-90
2022/09/15 01:14:06;;;;;;;;;;;;;;;;;;6266002;22;19922;-90
2022/09/15 01:16:32;;;;;;;;;;;;;;;;;;6290908;22;19975;-89
2022/09/15 01:18:58;;;;;;;;;;;;;;;;;;6292041;22;19919;-90
2022/09/15 01:21:24;;;;;;;;;;;;;;;;;;6291631;22;19941;-89
2022/09/15 01:23:50;;;;;;;;;;;;;;;;;;6287940;22;20243;-90
2022/09/15 01:26:16;;;;;;;;;;;;;;;;;;6292245;22;20000;-90
2022/09/15 01:28:42;;;;;;;;;;;;;;;;;;6291221;22;19925;-90
2022/09/15 01:31:08;;;;;;;;;;;;;;;;;;6265054;22;19919;-89
2022/09/15 01:33:34;;;;;;;;;;;;;;;;;;6288507;22;20243;-90
2022/09/15 01:36:00;;;;;;;;;;;;;;;;;;6267191;22;20235;-90
2022/09/15 01:38:26;;;;;;;;;;;;;;;;;;6260656;22;19950;-91
2022/09/15 01:40:52;;;;;;;;;;;;;;;;;;6287718;22;20322;-90
2022/09/15 01:43:18;;;;;;;;;;;;;;;;;;6291470;22;19990;-90
2022/09/15 01:45:44;;;;;;;;;;;;;;;;;;6291060;22;20560;-91
2022/09/15 01:48:10;;;;;;;;;;;;;;;;;;6263297;22;19919;-91
2022/09/15 01:50:36;;;;;;;;;;;;;;;;;;6283115;22;19993;-90
2022/09/15 01:53:02;;;;;;;;;;;;;;;;;;6287310;22;19951;-91
2022/09/15 01:55:28;;;;;;;;;;;;;;;;;;6260438;22;19929;-90
2022/09/15 01:57:54;;;;;;;;;;;;;;;;;;6260604;22;19918;-91
2022/09/15 02:00:20;;;;;;;;;;;;;;;;;;6289570;22;20344;-91
2022/09/15 02:02:46;;;;;;;;;;;;;;;;;;6259065;22;20251;-91
2022/09/15 02:05:13;;;;;;;;;;;;;;;;;;6288071;22;19958;-91
2022/09/15 02:07:43;;;;;;;;;;;;;;;;;;6259702;22;19918;-91
2022/09/15 02:10:10;;;;;;;;;;;;;;;;;;6263608;22;19919;-91
2022/09/15 02:12:36;;;;;;;;;;;;;;;;;;6259335;22;20324;-91
2022/09/15 02:15:04;;;;;;;;;;;;;;;;;;6290473;22;19934;-91
2022/09/15 02:17:31;;;;;;;;;;;;;;;;;;6264556;22;19926;-91
2022/09/15 02:20:01;;;;;;;;;;;;;;;;;;6293265;22;20330;-91
2022/09/15 02:22:27;;;;;;;;;;;;;;;;;;6261747;22;20175;-90
2022/09/15 02:24:53;;;;;;;;;;;;;;;;;;6288354;22;20247;-91
2022/09/15 02:27:23;;;;;;;;;;;;;;;;;;6288815;22;19923;-90
2022/09/15 02:29:49;;;;;;;;;;;;;;;;;;6262826;22;19919;-91
2022/09/15 02:32:15;;;;;;;;;;;;;;;;;;6263031;22;20357;-91
2022/09/15 02:34:41;;;;;;;;;;;;;;;;;;6260733;22;19926;-91
2022/09/15 02:37:07;;;;;;;;;;;;;;;;;;6264164;22;19930;-91
2022/09/15 02:39:33;;;;;;;;;;;;;;;;;;6261762;22;19919;-89
2022/09/15 02:42:01;;;;;;;;;;;;;;;;;;6263300;22;19950;-90
2022/09/15 02:44:29;;;;;;;;;;;;;;;;;;6263778;22;20232;-90
2022/09/15 02:46:56;;;;;;;;;;;;;;;;;;6260980;22;20358;-91
2022/09/15 02:49:22;;;;;;;;;;;;;;;;;;6290169;22;20396;-90
2022/09/15 02:51:51;;;;;;;;;;;;;;;;;;6259217;22;19922;-91
2022/09/15 02:54:17;;;;;;;;;;;;;;;;;;6263254;22;19935;-90
2022/09/15 02:56:43;;;;;;;;;;;;;;;;;;6284879;22;20446;-91
2022/09/15 02:59:09;;;;;;;;;;;;;;;;;;6263459;22;20320;-90
2022/09/15 03:01:35;;;;;;;;;;;;;;;;;;6288515;22;19918;-90
2022/09/15 03:04:01;;;;;;;;;;;;;;;;;;6263852;22;19914;-90
2022/09/15 03:06:29;;;;;;;;;;;;;;;;;;6290327;22;20026;-91
2022/09/15 03:08:55;;;;;;;;;;;;;;;;;;6262924;22;19919;-91
2022/09/15 03:11:21;;;;;;;;;;;;;;;;;;6264622;22;19926;-90
2022/09/15 03:13:47;;;;;;;;;;;;;;;;;;6262601;22;19934;-90
2022/09/15 03:16:13;;;;;;;;;;;;;;;;;;6291223;22;19926;-91
2022/09/15 03:18:39;;;;;;;;;;;;;;;;;;6264198;22;19919;-91
2022/09/15 03:21:05;;;;;;;;;;;;;;;;;;6290497;22;20308;-91
2022/09/15 03:23:34;;;;;;;;;;;;;;;;;;6291813;22;20040;-91
2022/09/15 03:26:00;;;;;;;;;;;;;;;;;;6266019;22;19919;-90
2022/09/15 03:28:26;;;;;;;;;;;;;;;;;;6291174;22;19926;-90
2022/09/15 03:30:52;;;;;;;;;;;;;;;;;;6263042;22;20406;-90
2022/09/15 03:33:18;;;;;;;;;;;;;;;;;;6290487;22;20346;-90
2022/09/15 03:35:43;;;;;;;;;;;;;;;;;;6268237;22;20581;-90
2022/09/15 03:38:09;;;;;;;;;;;;;;;;;;6275292;22;19919;-91
2022/09/15 03:40:36;;;;;;;;;;;;;;;;;;6263783;22;19919;-90
2022/09/15 03:43:02;;;;;;;;;;;;;;;;;;6264955;22;19981;-90
2022/09/15 03:45:28;;;;;;;;;;;;;;;;;;6263681;22;20307;-91
2022/09/15 03:47:54;;;;;;;;;;;;;;;;;;6286516;22;19925;-90
2022/09/15 03:50:20;;;;;;;;;;;;;;;;;;6264475;22;19927;-91
2022/09/15 03:52:46;;;;;;;;;;;;;;;;;;6262532;22;19915;-91
2022/09/15 03:55:12;;;;;;;;;;;;;;;;;;6289253;22;19922;-90
2022/09/15 03:57:38;;;;;;;;;;;;;;;;;;6261714;22;19919;-91
2022/09/15 04:00:04;;;;;;;;;;;;;;;;;;6263153;22;19925;-91
2022/09/15 04:02:30;;;;;;;;;;;;;;;;;;6264803;22;19921;-90
2022/09/15 04:04:56;;;;;;;;;;;;;;;;;;6287676;22;19915;-91
2022/09/15 04:07:22;;;;;;;;;;;;;;;;;;6292488;22;19926;-91
2022/09/15 04:09:48;;;;;;;;;;;;;;;;;;6287692;22;20021;-90
2022/09/15 04:12:14;;;;;;;;;;;;;;;;;;6287713;22;19919;-91
2022/09/15 04:14:40;;;;;;;;;;;;;;;;;;6288871;22;19923;-91
2022/09/15 04:17:06;;;;;;;;;;;;;;;;;;6291816;22;20282;-91
2022/09/15 04:19:32;;;;;;;;;;;;;;;;;;6266678;22;20402;-91
2022/09/15 04:21:58;;;;;;;;;;;;;;;;;;6268307;22;19966;-91
2022/09/15 04:24:24;;;;;;;;;;;;;;;;;;6289235;22;20060;-91
2022/09/15 04:26:50;;;;;;;;;;;;;;;;;;6259950;22;19993;-91
2022/09/15 04:29:16;;;;;;;;;;;;;;;;;;6288449;22;20252;-91
2022/09/15 04:31:42;;;;;;;;;;;;;;;;;;6263489;22;19949;-91
2022/09/15 04:34:09;;;;;;;;;;;;;;;;;;6290781;22;20009;-90
2022/09/15 04:36:34;;;;;;;;;;;;;;;;;;6288347;22;19919;-90
2022/09/15 04:39:00;;;;;;;;;;;;;;;;;;6287338;22;19924;-91
2022/09/15 04:41:26;;;;;;;;;;;;;;;;;;6287406;22;19919;-90
2022/09/15 04:43:52;;;;;;;;;;;;;;;;;;6261043;22;20321;-90
2022/09/15 04:46:18;;;;;;;;;;;;;;;;;;6289514;22;19961;-91
2022/09/15 04:48:44;;;;;;;;;;;;;;;;;;6286508;22;19918;-91
2022/09/15 04:51:10;;;;;;;;;;;;;;;;;;6263132;22;19923;-91
2022/09/15 04:53:36;;;;;;;;;;;;;;;;;;6259868;22;20395;-91
2022/09/15 04:56:02;;;;;;;;;;;;;;;;;;6287708;22;19926;-90
2022/09/15 04:58:28;;;;;;;;;;;;;;;;;;6288598;22;19946;-90
2022/09/15 05:00:54;;;;;;;;;;;;;;;;;;6257130;22;20445;-89
2022/09/15 05:03:20;;;;;;;;;;;;;;;;;;6287925;22;19919;-90
2022/09/15 05:05:46;;;;;;;;;;;;;;;;;;6285978;22;19930;-92
2022/09/15 05:08:12;;;;;;;;;;;;;;;;;;6262014;22;19941;-91
2022/09/15 05:10:38;;;;;;;;;;;;;;;;;;6260716;22;19925;-91
2022/09/15 05:13:04;;;;;;;;;;;;;;;;;;6290256;22;19926;-91
2022/09/15 05:15:30;;;;;;;;;;;;;;;;;;6287314;22;19919;-91
2022/09/15 05:17:56;;;;;;;;;;;;;;;;;;6256926;22;20343;-91
2022/09/15 05:20:22;;;;;;;;;;;;;;;;;;6259442;22;19919;-90
2022/09/15 05:22:48;;;;;;;;;;;;;;;;;;6287939;22;19922;-91
2022/09/15 05:25:14;;;;;;;;;;;;;;;;;;6261488;22;20412;-91
2022/09/15 05:27:40;;;;;;;;;;;;;;;;;;6282395;22;20545;-91
2022/09/15 05:30:06;;;;;;;;;;;;;;;;;;6285690;22;19919;-91
2022/09/15 05:32:32;;;;;;;;;;;;;;;;;;6261941;22;20335;-91
2022/09/15 05:34:58;;;;;;;;;;;;;;;;;;6266731;22;19919;-91
2022/09/15 05:37:24;;;;;;;;;;;;;;;;;;6262826;22;19925;-91
2022/09/15 05:39:50;;;;;;;;;;;;;;;;;;6261311;22;19988;-91
2022/09/15 05:42:16;;;;;;;;;;;;;;;;;;6286149;22;19918;-91
2022/09/15 05:44:42;;;;;;;;;;;;;;;;;;6258704;22;20398;-90
2022/09/15 05:47:09;;;;;;;;;;;;;;;;;;6284943;22;19925;-91
2022/09/15 05:49:35;;;;;;;;;;;;;;;;;;6260329;22;19969;-90
2022/09/15 05:52:01;;;;;;;;;;;;;;;;;;6266429;22;19925;-90
2022/09/15 05:54:27;;;;;;;;;;;;;;;;;;6294682;22;19926;-90
2022/09/15 05:56:53;;;;;;;;;;;;;;;;;;6294809;22;19919;-90
2022/09/15 05:59:19;;;;;;;;;;;;;;;;;;6274186;22;19963;-91
2022/09/15 06:01:45;;;;;;;;;;;;;;;;;;6291810;22;19926;-91
2022/09/15 06:04:11;;;;;;;;;;;;;;;;;;6300481;22;19919;-92
2022/09/15 06:06:37;;;;;;;;;;;;;;;;;;6290311;22;19923;-91
2022/09/15 06:09:03;;;;;;;;;;;;;;;;;;6295333;22;19993;-91
2022/09/15 06:11:29;;;;;;;;;;;;;;;;;;6293268;22;20448;-91
2022/09/15 06:13:55;;;;;;;;;;;;;;;;;;6296131;22;20418;-91
2022/09/15 06:16:21;;;;;;;;;;;;;;;;;;6262541;22;19957;-90
2022/09/15 06:18:47;;;;;;;;;;;;;;;;;;6289963;22;19929;-91
2022/09/15 06:21:13;;;;;;;;;;;;;;;;;;6274378;22;19954;-91
2022/09/15 06:23:38;;;;;;;;;;;;;;;;;;6299681;22;20295;-91
2022/09/15 06:26:05;;;;;;;;;;;;;;;;;;6272196;22;19919;-91
2022/09/15 06:28:31;;;;;;;;;;;;;;;;;;6271326;22;19918;-91
2022/09/15 06:30:58;;;;;;;;;;;;;;;;;;6270138;22;20549;-91
2022/09/15 06:33:23;;;;;;;;;;;;;;;;;;6267754;22;19974;-91
2022/09/15 06:35:49;;;;;;;;;;;;;;;;;;6265687;22;19922;-91
2022/09/15 06:38:16;;;;;;;;;;;;;;;;;;6270282;22;19918;-91
2022/09/15 06:40:42;;;;;;;;;;;;;;;;;;6292674;22;19918;-91
2022/09/15 06:43:07;;;;;;;;;;;;;;;;;;6294771;22;19929;-92
2022/09/15 06:45:33;;;;;;;;;;;;;;;;;;6294376;22;19976;-91
2022/09/15 06:47:59;;;;;;;;;;;;;;;;;;6294336;22;19926;-91
2022/09/15 06:50:25;;;;;;;;;;;;;;;;;;6270011;22;19957;-91
2022/09/15 06:52:54;;;;;;;;;;;;;;;;;;6266917;22;19918;-91
2022/09/15 06:55:23;;;;;;;;;;;;;;;;;;6266706;22;19952;-93
2022/09/15 06:57:49;;;;;;;;;;;;;;;;;;6268195;22;19988;-91
2022/09/15 07:00:15;;;;;;;;;;;;;;;;;;6272245;22;19922;-91
2022/09/15 07:02:41;;;;;;;;;;;;;;;;;;6297510;22;19985;-91
2022/09/15 07:05:07;;;;;;;;;;;;;;;;;;6272486;22;19994;-91
2022/09/15 07:07:33;;;;;;;;;;;;;;;;;;6297536;22;20434;-90
2022/09/15 07:10:00;;;;;;;;;;;;;;;;;;6301874;22;20092;-91
2022/09/15 07:12:26;;;;;;;;;;;;;;;;;;6275060;22;19925;-90
2022/09/15 07:14:51;;;;;;;;;;;;;;;;;;6272606;22;20453;-91
2022/09/15 07:17:17;;;;;;;;;;;;;;;;;;6275082;22;19922;-91
2022/09/15 07:19:44;;;;;;;;;;;;;;;;;;6272011;22;19925;-91
2022/09/15 07:22:10;;;;;;;;;;;;;;;;;;6299187;22;19915;-91
2022/09/15 07:24:36;;;;;;;;;;;;;;;;;;6271525;22;19915;-91
2022/09/15 07:27:02;;;;;;;;;;;;;;;;;;6275537;22;19919;-90
2022/09/15 07:29:28;;;;;;;;;;;;;;;;;;6275053;22;19919;-91
2022/09/15 07:31:54;;;;;;;;;;;;;;;;;;6297952;22;19926;-91
2022/09/15 07:34:20;;;;;;;;;;;;;;;;;;6298194;22;19925;-91
2022/09/15 07:36:46;;;;;;;;;;;;;;;;;;6270392;22;19918;-90
2022/09/15 07:39:12;;;;;;;;;;;;;;;;;;6274273;22;20254;-91
2022/09/15 07:41:38;;;;;;;;;;;;;;;;;;6271514;22;19925;-91
2022/09/15 07:44:04;;;;;;;;;;;;;;;;;;6274420;22;19993;-91
2022/09/15 07:46:30;;;;;;;;;;;;;;;;;;6274274;22;20353;-91
2022/09/15 07:48:56;;;;;;;;;;;;;;;;;;6296832;22;19914;-91
2022/09/15 07:51:22;;;;;;;;;;;;;;;;;;6298310;22;20281;-91
2022/09/15 07:53:48;;;;;;;;;;;;;;;;;;6271572;22;19931;-91
2022/09/15 07:56:17;;;;;;;;;;;;;;;;;;6273351;22;19919;-91
2022/09/15 07:58:43;;;;;;;;;;;;;;;;;;6272154;22;20398;-91
2022/09/15 08:01:13;;;;;;;;;;;;;;;;;;6300035;22;20348;-90
2022/09/15 08:03:40;;;;;;;;;;;;;;;;;;6270754;22;19926;-91
2022/09/15 08:06:06;;;;;;;;;;;;;;;;;;6273278;22;19919;-91
2022/09/15 08:08:32;;;;;;;;;;;;;;;;;;6271730;22;19950;-90
2022/09/15 08:10:58;;;;;;;;;;;;;;;;;;6300526;22;19915;-90
2022/09/15 08:13:24;;;;;;;;;;;;;;;;;;6298652;22;19956;-90
2022/09/15 08:15:50;;;;;;;;;;;;;;;;;;6271766;22;19996;-89
2022/09/15 08:18:16;;;;;;;;;;;;;;;;;;6271687;22;19941;-90
2022/09/15 08:20:42;;;;;;;;;;;;;;;;;;6270432;22;20334;-89
2022/09/15 08:23:09;;;;;;;;;;;;;;;;;;6274769;22;19953;-89
2022/09/15 08:25:35;;;;;;;;;;;;;;;;;;6298089;22;19926;-89
2022/09/15 08:28:01;;;;;;;;;;;;;;;;;;6299622;22;19999;-89
2022/09/15 08:30:27;;;;;;;;;;;;;;;;;;6274761;22;19923;-90
2022/09/15 08:32:53;;;;;;;;;;;;;;;;;;6298801;22;20335;-90
2022/09/15 08:35:19;;;;;;;;;;;;;;;;;;6274382;22;19927;-90
2022/09/15 08:37:45;;;;;;;;;;;;;;;;;;6325970;22;19918;-90
2022/09/15 08:40:11;;;;;;;;;;;;;;;;;;6275294;22;19925;-90
2022/09/15 08:42:37;;;;;;;;;;;;;;;;;;6271720;22;20015;-90
2022/09/15 08:45:03;;;;;;;;;;;;;;;;;;6274354;22;20383;-89
2022/09/15 08:47:29;;;;;;;;;;;;;;;;;;6273362;22;20247;-89
2022/09/15 08:49:55;;;;;;;;;;;;;;;;;;6297947;22;19915;-90
2022/09/15 08:52:21;;;;;;;;;;;;;;;;;;6273522;22;19922;-89
2022/09/15 08:54:47;;;;;;;;;;;;;;;;;;6271870;22;19995;-90
2022/09/15 08:57:13;;;;;;;;;;;;;;;;;;6274252;22;20203;-90
2022/09/15 08:59:39;;;;;;;;;;;;;;;;;;6270403;22;19915;-90
2022/09/15 09:02:05;;;;;;;;;;;;;;;;;;6299598;22;19915;-91
2022/09/15 09:04:30;;;;;;;;;;;;;;;;;;6274322;22;19915;-90
2022/09/15 09:06:56;;;;;;;;;;;;;;;;;;6272940;22;20114;-90
2022/09/15 09:09:22;;;;;;;;;;;;;;;;;;6302962;22;19922;-90
2022/09/15 09:11:48;;;;;;;;;;;;;;;;;;6300514;22;19922;-90
2022/09/15 09:14:14;;;;;;;;;;;;;;;;;;6301815;22;19930;-90
2022/09/15 09:16:40;;;;;;;;;;;;;;;;;;6275165;22;19946;-90
2022/09/15 09:19:06;;;;;;;;;;;;;;;;;;6276942;22;19964;-90
2022/09/15 09:21:32;;;;;;;;;;;;;;;;;;6300429;22;20224;-90
2022/09/15 09:23:58;;;;;;;;;;;;;;;;;;6301736;22;19990;-90
2022/09/15 09:26:24;;;;;;;;;;;;;;;;;;6301056;22;19918;-90
2022/09/15 09:28:50;;;;;;;;;;;;;;;;;;6297227;22;19975;-90
2022/09/15 09:31:16;;;;;;;;;;;;;;;;;;6277016;22;19942;-90
2022/09/15 09:33:42;;;;;;;;;;;;;;;;;;6272765;22;19919;-89
2022/09/15 09:36:08;;;;;;;;;;;;;;;;;;6301234;22;20350;-90
2022/09/15 09:38:34;;;;;;;;;;;;;;;;;;6273266;22;20225;-90
2022/09/15 09:41:00;;;;;;;;;;;;;;;;;;6300079;22;19918;-90
2022/09/15 09:43:26;;;;;;;;;;;;;;;;;;6300970;22;19919;-89
2022/09/15 09:45:52;;;;;;;;;;;;;;;;;;6299461;22;20244;-89
2022/09/15 09:48:19;;;;;;;;;;;;;;;;;;6301162;22;19960;-90
2022/09/15 09:50:45;;;;;;;;;;;;;;;;;;6273615;22;19923;-90
2022/09/15 09:53:10;;;;;;;;;;;;;;;;;;6274274;22;19922;-90
2022/09/15 09:55:40;;;;;;;;;;;;;;;;;;6272525;22;20574;-90
2022/09/15 09:58:06;;;;;;;;;;;;;;;;;;6274115;22;19914;-90
2022/09/15 10:00:35;;;;;;;;;;;;;;;;;;6300384;22;20317;-90
2022/09/15 10:03:01;;;;;;;;;;;;;;;;;;6275121;22;19927;-90
2022/09/15 10:05:27;;;;;;;;;;;;;;;;;;6275835;22;19927;-90
2022/09/15 10:07:53;;;;;;;;;;;;;;;;;;6274401;22;19918;-90
2022/09/15 10:10:19;;;;;;;;;;;;;;;;;;6275653;22;19999;-90
2022/09/15 10:12:45;;;;;;;;;;;;;;;;;;6273466;22;19947;-90
2022/09/15 10:15:11;;;;;;;;;;;;;;;;;;6299984;22;19919;-90
2022/09/15 10:17:37;;;;;;;;;;;;;;;;;;6298131;22;19929;-90
2022/09/15 10:20:03;;;;;;;;;;;;;;;;;;6301987;22;20416;-90
2022/09/15 10:22:29;;;;;;;;;;;;;;;;;;6301705;22;19918;-90
2022/09/15 10:24:55;;;;;;;;;;;;;;;;;;6297906;22;20395;-90
2022/09/15 10:27:21;;;;;;;;;;;;;;;;;;6276044;22;19915;-90
2022/09/15 10:29:47;;;;;;;;;;;;;;;;;;6272900;22;19976;-91
2022/09/15 10:32:13;;;;;;;;;;;;;;;;;;6273314;22;19919;-90
2022/09/15 10:34:39;;;;;;;;;;;;;;;;;;6271248;22;19922;-91
2022/09/15 10:37:05;;;;;;;;;;;;;;;;;;6275538;22;19915;-90
2022/09/15 10:39:31;;;;;;;;;;;;;;;;;;6299632;22;19997;-90
2022/09/15 10:41:57;;;;;;;;;;;;;;;;;;6272579;22;19918;-90
2022/09/15 10:44:22;;;;;;;;;;;;;;;;;;6275458;22;19991;-90
2022/09/15 10:46:48;;;;;;;;;;;;;;;;;;6271835;22;19921;-90
2022/09/15 10:49:14;;;;;;;;;;;;;;;;;;6302412;22;19990;-89
2022/09/15 10:51:40;;;;;;;;;;;;;;;;;;6299447;22;19963;-89
2022/09/15 10:54:06;;;;;;;;;;;;;;;;;;6302869;22;19924;-90
2022/09/15 10:56:32;;;;;;;;;;;;;;;;;;6275952;22;20403;-92
2022/09/15 10:58:59;;;;;;;;;;;;;;;;;;6276743;22;20245;-89
2022/09/15 11:01:25;;;;;;;;;;;;;;;;;;6303012;22;19922;-89
2022/09/15 11:03:51;;;;;;;;;;;;;;;;;;6274609;22;19914;-90
2022/09/15 11:06:17;;;;;;;;;;;;;;;;;;6301592;22;19960;-89
2022/09/15 11:08:43;;;;;;;;;;;;;;;;;;6299150;22;19922;-90
2022/09/15 11:11:09;;;;;;;;;;;;;;;;;;6302462;22;19968;-89
2022/09/15 11:13:35;;;;;;;;;;;;;;;;;;6299011;22;19919;-90
2022/09/15 11:16:02;;;;;;;;;;;;;;;;;;6276455;22;19993;-90
2022/09/15 11:18:28;;;;;;;;;;;;;;;;;;6301840;22;19928;-90
2022/09/15 11:20:54;;;;;;;;;;;;;;;;;;6298031;22;20001;-90
2022/09/15 11:23:20;;;;;;;;;;;;;;;;;;6276726;22;19926;-90
2022/09/15 11:25:46;;;;;;;;;;;;;;;;;;6273961;22;19946;-90
2022/09/15 11:28:12;;;;;;;;;;;;;;;;;;6274331;22;19926;-91
2022/09/15 11:30:38;;;;;;;;;;;;;;;;;;6274471;22;19914;-90
2022/09/15 11:33:04;;;;;;;;;;;;;;;;;;6275896;22;19922;-90
2022/09/15 11:35:30;;;;;;;;;;;;;;;;;;6275902;22;19918;-90
2022/09/15 11:37:56;;;;;;;;;;;;;;;;;;6270948;22;19926;-89
2022/09/15 11:40:22;;;;;;;;;;;;;;;;;;6276745;22;20331;-91
2022/09/15 11:42:48;;;;;;;;;;;;;;;;;;6272590;22;20288;-90
2022/09/15 11:45:14;;;;;;;;;;;;;;;;;;6301575;22;19922;-91
2022/09/15 11:47:40;;;;;;;;;;;;;;;;;;6297751;22;20221;-91
2022/09/15 11:50:06;;;;;;;;;;;;;;;;;;6274655;22;20361;-91
2022/09/15 11:52:32;;;;;;;;;;;;;;;;;;6274997;22;20448;-90
2022/09/15 11:54:58;;;;;;;;;;;;;;;;;;6301607;22;20335;-90
2022/09/15 11:57:24;;;;;;;;;;;;;;;;;;6275926;22;19921;-90
2022/09/15 11:59:50;;;;;;;;;;;;;;;;;;6272511;22;19918;-90
2022/09/15 12:02:16;;;;;;;;;;;;;;;;;;6301379;22;19914;-90
2022/09/15 12:04:42;;;;;;;;;;;;;;;;;;6299638;22;19918;-90
2022/09/15 12:07:08;;;;;;;;;;;;;;;;;;6300279;22;19942;-90
2022/09/15 12:09:34;;;;;;;;;;;;;;;;;;6298176;22;19918;-90
2022/09/15 12:12:00;;;;;;;;;;;;;;;;;;6301539;22;20354;-90
2022/09/15 12:14:26;;;;;;;;;;;;;;;;;;6274358;22;19972;-90
2022/09/15 12:16:52;;;;;;;;;;;;;;;;;;6273489;22;20346;-90
2022/09/15 12:19:18;;;;;;;;;;;;;;;;;;6301572;22;19914;-90
2022/09/15 12:21:44;;;;;;;;;;;;;;;;;;6299069;22;19925;-90
2022/09/15 12:24:10;;;;;;;;;;;;;;;;;;6275547;22;19925;-90
2022/09/15 12:26:36;;;;;;;;;;;;;;;;;;6272788;22;19951;-90
2022/09/15 12:29:02;;;;;;;;;;;;;;;;;;6276014;22;19926;-90
2022/09/15 12:31:28;;;;;;;;;;;;;;;;;;6300215;22;19914;-90
2022/09/15 12:33:54;;;;;;;;;;;;;;;;;;6296261;22;19915;-89
2022/09/15 12:36:22;;;;;;;;;;;;;;;;;;6301439;22;20385;-90
2022/09/15 12:38:48;;;;;;;;;;;;;;;;;;6300319;22;19967;-90
2022/09/15 12:41:14;;;;;;;;;;;;;;;;;;6275322;22;20247;-90
2022/09/15 12:43:40;;;;;;;;;;;;;;;;;;6299103;22;19915;-89
2022/09/15 12:46:06;;;;;;;;;;;;;;;;;;6301648;22;20234;-90
2022/09/15 12:48:32;;;;;;;;;;;;;;;;;;6298341;22;20259;-90
2022/09/15 12:50:58;;;;;;;;;;;;;;;;;;6274233;22;19922;-90
2022/09/15 12:53:24;;;;;;;;;;;;;;;;;;6299506;22;20293;-90
2022/09/15 12:55:51;;;;;;;;;;;;;;;;;;6298230;22;20001;-90
2022/09/15 12:58:17;;;;;;;;;;;;;;;;;;6300698;22;19918;-90
2022/09/15 13:00:43;;;;;;;;;;;;;;;;;;6297499;22;19918;-89
2022/09/15 13:03:09;;;;;;;;;;;;;;;;;;6274565;22;20296;-90
2022/09/15 13:05:35;;;;;;;;;;;;;;;;;;6299568;22;19925;-90
2022/09/15 13:08:01;;;;;;;;;;;;;;;;;;6302488;22;20264;-90
2022/09/15 13:10:27;;;;;;;;;;;;;;;;;;6299758;22;19918;-90
2022/09/15 13:12:53;;;;;;;;;;;;;;;;;;6297593;22;20478;-90
2022/09/15 13:15:19;;;;;;;;;;;;;;;;;;6298114;22;20434;-90
2022/09/15 13:17:45;;;;;;;;;;;;;;;;;;6298111;22;19925;-90
2022/09/15 13:20:11;;;;;;;;;;;;;;;;;;6274355;22;20239;-90
2022/09/15 13:22:37;;;;;;;;;;;;;;;;;;6297073;22;19922;-92
2022/09/15 13:25:03;;;;;;;;;;;;;;;;;;6300779;22;19940;-90
2022/09/15 13:27:29;;;;;;;;;;;;;;;;;;6276395;22;20324;-90
2022/09/15 13:29:55;;;;;;;;;;;;;;;;;;6297573;22;19921;-90
2022/09/15 13:32:21;;;;;;;;;;;;;;;;;;6300187;22;19919;-90
2022/09/15 13:34:47;;;;;;;;;;;;;;;;;;6296375;22;19922;-90
2022/09/15 13:37:13;;;;;;;;;;;;;;;;;;6275217;22;19918;-90
2022/09/15 13:39:39;;;;;;;;;;;;;;;;;;6296925;22;19918;-90
2022/09/15 13:42:05;;;;;;;;;;;;;;;;;;6301222;22;19918;-90
2022/09/15 13:44:31;;;;;;;;;;;;;;;;;;6275512;22;19915;-90
2022/09/15 13:46:56;;;;;;;;;;;;;;;;;;6272314;22;19919;-90
2022/09/15 13:49:22;;;;;;;;;;;;;;;;;;6276020;22;19918;-90
2022/09/15 13:51:48;;;;;;;;;;;;;;;;;;6291425;22;19923;-89
2022/09/15 13:54:15;;;;;;;;;;;;;;;;;;6293469;22;19980;-88
2022/09/15 13:56:41;;;;;;;;;;;;;;;;;;6269192;22;19925;-89
2022/09/15 13:59:08;;;;;;;;;;;;;;;;;;6276732;22;19927;-89
2022/09/15 14:01:34;;;;;;;;;;;;;;;;;;6293062;22;19919;-88
2022/09/15 14:04:00;;;;;;;;;;;;;;;;;;6274740;22;20009;-89
2022/09/15 14:06:34;;;;;;;;;;;;;;;;;;6274478;22;19997;-89
2022/09/15 14:09:02;;;;;;;;;;;;;;;;;;6269371;22;19915;-89
2022/09/15 14:11:28;;;;;;;;;;;;;;;;;;6296406;22;20289;-89
2022/09/15 14:13:54;;;;;;;;;;;;;;;;;;6270713;22;19918;-89
2022/09/15 14:16:22;;;;;;;;;;;;;;;;;;6300110;22;20434;-90
2022/09/15 14:18:48;;;;;;;;;;;;;;;;;;6271240;22;19924;-90
2022/09/15 14:21:14;;;;;;;;;;;;;;;;;;6267109;22;19914;-90
2022/09/15 14:23:40;;;;;;;;;;;;;;;;;;6265826;22;19979;-89
2022/09/15 14:26:06;;;;;;;;;;;;;;;;;;6270340;22;19919;-89
2022/09/15 14:28:35;;;;;;;;;;;;;;;;;;6263284;22;19993;-89
2022/09/15 14:31:01;;;;;;;;;;;;;;;;;;6267240;22;19933;-90
2022/09/15 14:33:27;;;;;;;;;;;;;;;;;;6267996;22;20236;-90
2022/09/15 14:35:53;;;;;;;;;;;;;;;;;;6260914;22;19922;-90
2022/09/15 14:38:19;;;;;;;;;;;;;;;;;;6288669;22;19975;-90
2022/09/15 14:40:45;;;;;;;;;;;;;;;;;;6287693;22;19918;-90
2022/09/15 14:43:11;;;;;;;;;;;;;;;;;;6290672;22;20373;-90
2022/09/15 14:45:38;;;;;;;;;;;;;;;;;;6288800;22;19922;-90
2022/09/15 14:48:04;;;;;;;;;;;;;;;;;;6266125;22;20410;-90
2022/09/15 14:50:30;;;;;;;;;;;;;;;;;;6267685;22;19919;-90
2022/09/15 14:52:56;;;;;;;;;;;;;;;;;;6290085;22;19914;-90
2022/09/15 14:55:22;;;;;;;;;;;;;;;;;;6291182;22;19984;-89
2022/09/15 14:57:48;;;;;;;;;;;;;;;;;;6261855;22;19959;-90
2022/09/15 15:00:14;;;;;;;;;;;;;;;;;;6266832;22;20284;-90
2022/09/15 15:02:40;;;;;;;;;;;;;;;;;;6286609;22;19941;-89
2022/09/15 15:05:06;;;;;;;;;;;;;;;;;;6292050;22;19952;-90
2022/09/15 15:07:35;;;;;;;;;;;;;;;;;;6291049;22;20188;-91
2022/09/15 15:10:01;;;;;;;;;;;;;;;;;;6292664;22;19954;-90
2022/09/15 15:12:27;;;;;;;;;;;;;;;;;;6267338;22;19930;-90
2022/09/15 15:14:53;;;;;;;;;;;;;;;;;;6289887;22;20029;-91
2022/09/15 15:17:19;;;;;;;;;;;;;;;;;;6267554;22;19929;-90
2022/09/15 15:19:45;;;;;;;;;;;;;;;;;;6261548;22;19993;-90
2022/09/15 15:22:11;;;;;;;;;;;;;;;;;;6292428;22;19925;-90
2022/09/15 15:24:37;;;;;;;;;;;;;;;;;;6290015;22;19976;-90
2022/09/15 15:27:02;;;;;;;;;;;;;;;;;;6267243;22;20403;-90
2022/09/15 15:29:28;;;;;;;;;;;;;;;;;;6292553;22;20529;-90
2022/09/15 15:31:54;;;;;;;;;;;;;;;;;;6262851;22;20327;-91
2022/09/15 15:34:20;;;;;;;;;;;;;;;;;;6264676;22;19922;-92
2022/09/15 15:36:47;;;;;;;;;;;;;;;;;;6289402;22;19942;-90
2022/09/15 15:39:13;;;;;;;;;;;;;;;;;;6289377;22;20324;-90
2022/09/15 15:41:39;;;;;;;;;;;;;;;;;;6264223;22;19922;-91
2022/09/15 15:44:08;;;;;;;;;;;;;;;;;;6287559;22;19919;-89
2022/09/15 15:46:34;;;;;;;;;;;;;;;;;;6285090;22;19967;-90
2022/09/15 15:49:00;;;;;;;;;;;;;;;;;;6262696;22;20346;-90
2022/09/15 15:51:26;;;;;;;;;;;;;;;;;;6266629;22;20342;-90
2022/09/15 15:53:52;;;;;;;;;;;;;;;;;;6287667;22;20306;-90
2022/09/15 15:56:18;;;;;;;;;;;;;;;;;;6293293;22;20040;-90
2022/09/15 15:58:44;;;;;;;;;;;;;;;;;;6289837;22;19919;-89
2022/09/15 16:01:10;;;;;;;;;;;;;;;;;;6265044;22;19919;-89
2022/09/15 16:03:36;;;;;;;;;;;;;;;;;;6259901;22;19925;-89
2022/09/15 16:06:02;;;;;;;;;;;;;;;;;;6268066;22;19993;-90
2022/09/15 16:08:28;;;;;;;;;;;;;;;;;;6269842;22;19924;-90
2022/09/15 16:10:57;;;;;;;;;;;;;;;;;;6263958;22;20269;-90
2022/09/15 16:13:23;;;;;;;;;;;;;;;;;;6288167;22;19989;-90
2022/09/15 16:15:49;;;;;;;;;;;;;;;;;;6286681;22;19923;-90
2022/09/15 16:18:15;;;;;;;;;;;;;;;;;;6289377;22;19926;-88
2022/09/15 16:20:41;;;;;;;;;;;;;;;;;;6287972;22;19922;-87
2022/09/15 16:23:07;;;;;;;;;;;;;;;;;;6268639;22;19922;-86
2022/09/15 16:25:33;;;;;;;;;;;;;;;;;;6289216;22;19929;-86
2022/09/15 16:27:59;;;;;;;;;;;;;;;;;;6285246;22;19975;-85
2022/09/15 16:30:25;;;;;;;;;;;;;;;;;;6267589;22;19968;-86
2022/09/15 16:32:51;;;;;;;;;;;;;;;;;;6261340;22;19919;-85
2022/09/15 16:35:17;;;;;;;;;;;;;;;;;;6291276;22;19923;-86
2022/09/15 16:37:43;;;;;;;;;;;;;;;;;;6292107;22;19953;-85